Terminal Aerodrome Forecast
Issued by NWS

Current Version | Previous Version | Graphics & Text | Print | Product List | Glossary On
Versions: 1 2 3 4 5 6 7 8 9 10 11 12 13 14 15 16 17 18 19 20 21 22 23 24 25 26 27 28
000
FTUS41 KILN 160200 AAA
TAFLUK
TAF AMD
KLUK 160217Z 1602/1624 28004KT P6SM -SHRA BKN040 OVC080
     FM160400 36005KT P6SM VCSH OVC025
     FM160600 36005KT P6SM VCSH OVC015
     FM160800 36008KT 4SM BR OVC009
     FM161500 01008KT P6SM OVC018
     FM161700 01008KT P6SM BKN028
     FM161900 01008KT P6SM BKN040=

USA.gov is the U.S. government's official web portal to all federal, state and local government web resources and services.